This is the latest recevied weather packets stored in our database for station/object OK0EK-12. If no packets are shown the sender has not sent any weather packets the latest 10 day(s).
| Time | Temp. | Humidity | Pressure | Rain* | Wind** | Luminosity | Snow |
|---|---|---|---|---|---|---|---|
| 1777470892 | 15° C | 19% | 1105.4 hPa | - | - | - | - |
| 1777470289 | 15° C | 19% | 1105.4 hPa | - | - | - | - |
| 1777469688 | 15° C | 18% | 1105.4 hPa | - | - | - | - |
| 1777469093 | 16.11° C | 18% | 1105.3 hPa | - | - | - | - |
| 1777468486 | 15.56° C | 19% | 1105.2 hPa | - | - | - | - |
| 1777467887 | 16.11° C | 19% | 1105.1 hPa | - | - | - | - |
| 1777467293 | 16.11° C | 19% | 1105.3 hPa | - | - | - | - |
| 1777466688 | 16.67° C | 20% | 1105.3 hPa | - | - | - | - |
| 1777466087 | 15.56° C | 19% | 1105.2 hPa | - | - | - | - |
| 1777465494 | 16.11° C | 21% | 1105.4 hPa | - | - | - | - |
| 1777464888 | 16.67° C | 21% | 1105.3 hPa | - | - | - | - |
| 1777464284 | 15.56° C | 21% | 1105.5 hPa | - | - | - | - |
| 1777463685 | 16.11° C | 22% | 1105.3 hPa | - | - | - | - |
| 1777463083 | 17.78° C | 22% | 1105.3 hPa | - | - | - | - |
| 1777462485 | 16.11° C | 22% | 1105.2 hPa | - | - | - | - |
| 1777461886 | 15° C | 25% | 1105.4 hPa | - | - | - | - |
| 1777461287 | 15.56° C | 25% | 1105.5 hPa | - | - | - | - |
| 1777460688 | 13.33° C | 27% | 1105.5 hPa | - | - | - | - |
| 1777460089 | 16.11° C | 26% | 1105.7 hPa | - | - | - | - |
| 1777459492 | 12.22° C | 30% | 1105.7 hPa | - | - | - | - |
| 1777458897 | 12.78° C | 29% | 1105.6 hPa | - | - | - | - |
| 1777458294 | 12.22° C | 30% | 1105.6 hPa | - | - | - | - |
| 1777457695 | 15° C | 27% | 1105.4 hPa | - | - | - | - |
| 1777457097 | 15.56° C | 27% | 1105.5 hPa | - | - | - | - |
| 1777455899 | 15.56° C | 27% | 1105.5 hPa | - | - | - | - |
* Rain since midnight (hover to see other rain measurements)
** Current wind speed in m/s (hover to see current wind gust speed)